Airfield :
LOGIN :

Register | Disclaimer

   EN    FR    IT 

 










Legend :    VFR   Marginal VFR   IFR   Intensive IFR   Very Intensive IFR
Visi :
Ceiling :
>= 8 km
>= 3000ft
5 to 8 km
1000 to 3000 ft
1500m to 5 km
500 to 1000 ft
800 to 1500m
200 to 500 ft
< 800m
< 200 ft
Symbols :   Thunderstorms  Fog  Heavy snow  Heavy precipitations  Wind > 20 kt
SIGMETs :     Misc.  Thunderstorms  Icing  Turbulence  Mountain Waves  Volcanic Ashes






- Airport Elevation : 995 ft
- IATA code : KTW


EPKT - Katowice

CURRENT METAR :
  • 070030Z 21013KT 9000 NSC M02/M04 Q1011

EXPIRED METARs :
  • 070000Z 22013KT 9000 NSC M02/M04 Q1011
  • 062330Z 21015KT CAVOK M02/M04 Q1012
  • 062300Z 21014KT CAVOK M02/M05 Q1012
  • 062230Z 21014KT CAVOK M02/M05 Q1012
  • 062200Z 22014KT CAVOK M02/M05 Q1012

TAF TAF EPKT
Valid from the 07 at 00:00 until the 08 at 00:00 UTC


062330Z 0700/0724 21015KT CAVOK
BECMG 0705/0707 BKN014
TEMPO 0707/0709 22020G30KT 1500 SNRA BKN004 OVC010
PROB30
TEMPO 0707/0709 FZRA
BECMG 0709/0711 BKN020
TEMPO 0709/0714 22016G26KT
TEMPO 0712/0722 4000 RA BR BKN011
BECMG 0714/0717 27013KT



MET'MAP, your aeronautical weather chart ! - Copyright ORBIFLY December 2007 - Disclaimer

ORBIFLY MET'MAP TEAM :

Programming & Development : Alexandra Zaïnal
Concept & original design : Baudouin d'Aumeries
Assistance for programming : Marc-Olivier Méhu
Technical & hardware support : Manuel Goepfert

Contact : metmap@orbifly.com




SOURCES & CREDITS :

   NOAA